Time;durP1;ratioP1;P1;durP2;ratioP2;P2;SDS_P1;SDS_P2;PMS_P1;PMS_P2;Temp;Humidity;BMP_temperature;BMP_pressure;BME280_temperature;BME280_humidity;BME280_pressure;Samples;Min_cycle;Max_cycle;Signal;HPM_P1;HPM_P2
2021/12/11 00:02:17;;;;;;;5.95;4.90;;;19.90;40.00;;;23.52;26.89;100130.78;5078423;28;20196;-77
2021/12/11 00:04:48;;;;;;;5.78;4.30;;;19.90;40.00;;;23.53;26.64;100118.31;5093711;28;20130;-76
2021/12/11 00:07:17;;;;;;;5.45;4.25;;;19.90;40.00;;;23.55;26.45;100135.88;5093867;28;20043;-77
2021/12/11 00:09:51;;;;;;;6.05;4.43;;;19.90;40.00;;;23.54;26.82;100134.19;5095055;28;20048;-76
2021/12/11 00:12:27;;;;;;;6.68;4.82;;;19.90;40.00;;;23.53;26.75;100137.84;5112076;28;20043;-77
2021/12/11 00:15:04;;;;;;;7.03;4.90;;;19.90;40.00;;;23.49;26.55;100141.75;5113390;28;20105;-77
2021/12/11 00:17:33;;;;;;;5.40;4.38;;;19.80;39.90;;;23.52;26.76;100152.13;5094942;28;20056;-77
2021/12/11 00:19:59;;;;;;;4.93;4.22;;;19.90;40.00;;;23.53;26.63;100153.00;5077943;28;20039;-76
2021/12/11 00:22:29;;;;;;;5.50;4.70;;;19.90;40.00;;;23.52;26.68;100153.97;5112249;28;20479;-77
2021/12/11 00:25:09;;;;;;;5.90;4.37;;;19.90;40.00;;;23.52;26.88;100156.63;5077031;28;20059;-76
2021/12/11 00:27:38;;;;;;;5.18;4.30;;;19.90;40.00;;;23.52;26.71;100160.16;5095019;28;20289;-77
2021/12/11 00:30:10;;;;;;;5.38;4.35;;;19.90;40.00;;;23.49;26.80;100163.09;5093725;28;20396;-76
2021/12/11 00:32:37;;;;;;;5.22;4.43;;;19.90;40.00;;;23.51;26.66;100166.47;5113458;28;20126;-76
2021/12/11 00:35:18;;;;;;;5.20;4.35;;;19.90;40.00;;;23.47;26.69;100165.03;5112857;28;20043;-77
2021/12/11 00:37:44;;;;;;;;;;;19.90;40.00;;;23.63;26.70;100175.28;5093266;28;20040;-76
2021/12/11 00:40:19;;;;;;;6.20;4.85;;;19.90;40.00;;;23.53;26.47;100177.84;5094710;28;19923;-77
2021/12/11 00:42:52;;;;;;;5.70;4.30;;;19.90;40.00;;;23.52;26.55;100186.81;5092670;28;20056;-77
2021/12/11 00:45:23;;;;;;;6.45;4.70;;;19.90;40.00;;;23.51;26.81;100195.81;5094690;28;20506;-77
2021/12/11 00:48:04;;;;;;;5.68;4.45;;;19.90;40.00;;;23.48;26.69;100191.56;5092690;28;20128;-76
2021/12/11 00:51:02;;;;;;;6.25;4.65;;;19.80;40.00;;;23.48;26.62;100194.25;5077125;28;20059;-76
2021/12/11 00:53:43;;;;;;;6.10;4.78;;;19.80;40.00;;;23.49;26.63;100211.13;5076473;28;20056;-77
2021/12/11 00:56:36;;;;;;;5.22;4.47;;;19.80;40.00;;;23.49;26.78;100209.28;5094334;28;20044;-77
2021/12/11 00:59:12;;;;;;;5.10;4.30;;;19.80;40.00;;;23.48;26.86;100206.75;5085308;28;20376;-76
2021/12/11 01:02:03;;;;;;;5.95;4.75;;;19.80;40.00;;;23.48;26.70;100212.91;5094739;28;20490;-76
2021/12/11 01:04:41;;;;;;;5.65;4.72;;;19.80;40.00;;;23.46;26.66;100208.69;5093862;28;20403;-76
2021/12/11 01:07:19;;;;;;;5.53;4.50;;;19.80;40.00;;;23.47;26.64;100213.91;5095161;28;20043;-76
2021/12/11 01:09:52;;;;;;;5.88;4.97;;;19.80;40.00;;;23.49;26.65;100225.31;5077836;28;20717;-76
2021/12/11 01:12:35;;;;;;;5.05;4.47;;;19.80;40.00;;;23.44;26.61;100221.34;5094396;28;20074;-76
2021/12/11 01:15:25;;;;;;;5.25;4.32;;;19.80;40.00;;;23.48;26.83;100231.59;5078288;28;20044;-76
2021/12/11 01:18:22;;;;;;;6.07;4.45;;;19.80;40.00;;;23.46;26.81;100230.06;5093993;28;20055;-76
2021/12/11 01:26:46;;;;;;;5.40;4.53;;;19.80;40.00;;;23.47;26.57;100251.28;5096087;28;20051;-77
2021/12/11 01:29:13;;;;;;;6.28;4.50;;;19.80;40.00;;;23.47;26.75;100253.06;5077135;28;20054;-77
2021/12/11 01:31:39;;;;;;;5.60;4.60;;;19.90;40.10;;;23.46;26.87;100254.91;5077452;28;20080;-77
2021/12/11 01:34:05;;;;;;;5.57;4.35;;;19.80;40.00;;;23.46;26.72;100257.56;5112548;28;20130;-77
2021/12/11 01:36:33;;;;;;;5.15;4.05;;;19.80;40.00;;;23.43;26.70;100263.16;5095931;28;20044;-76
2021/12/11 01:39:08;;;;;;;5.93;4.65;;;19.80;40.00;;;23.47;26.77;100264.63;5096307;28;20434;-77
2021/12/11 01:41:34;;;;;;;5.95;4.43;;;19.80;40.00;;;23.46;26.85;100267.41;5097857;28;20066;-76
2021/12/11 01:44:09;;;;;;;5.72;4.32;;;19.80;40.00;;;23.44;26.56;100264.03;5080676;28;20090;-76
2021/12/11 01:46:36;;;;;;;5.97;4.40;;;19.80;40.00;;;23.49;26.87;100283.16;5080468;28;20126;-77
2021/12/11 01:49:11;;;;;;;6.15;4.57;;;19.80;40.00;;;23.45;26.76;100277.22;5097383;28;20100;-76
2021/12/11 01:51:47;;;;;;;5.20;4.22;;;19.80;40.00;;;23.48;26.74;100292.13;5080456;28;20382;-76
2021/12/11 01:54:36;;;;;;;6.13;4.68;;;19.80;40.00;;;23.48;26.69;100295.63;5080291;28;20459;-77
2021/12/11 01:57:11;;;;;;;6.55;4.80;;;19.80;40.00;;;23.47;26.69;100293.09;5097605;28;20039;-77
2021/12/11 01:59:44;;;;;;;5.80;4.38;;;19.80;40.00;;;23.49;26.54;100305.34;5114140;28;20090;-76
2021/12/11 02:02:19;;;;;;;6.90;4.68;;;19.80;40.00;;;23.45;26.68;100295.88;5097160;28;20059;-77
2021/12/11 02:04:48;;;;;;;5.50;4.10;;;19.80;40.00;;;23.45;26.57;100295.88;5097713;28;20075;-77
2021/12/11 02:07:24;;;;;;;5.35;4.25;;;19.80;40.00;;;23.46;26.63;100302.94;5096852;28;20039;-77
2021/12/11 02:09:56;;;;;;;4.97;4.30;;;19.80;40.00;;;23.48;26.57;100310.81;5097116;28;20122;-76
2021/12/11 02:12:36;;;;;;;4.72;4.05;;;19.80;40.00;;;23.46;26.64;100318.94;5097714;28;20380;-77
2021/12/11 02:15:11;;;;;;;5.75;4.63;;;19.80;40.00;;;23.46;26.64;100320.75;5097359;28;20040;-76
2021/12/11 02:17:52;;;;;;;4.93;3.80;;;19.80;40.00;;;23.45;26.84;100327.91;5096056;28;20514;-77
2021/12/11 02:20:30;;;;;;;6.00;5.00;;;19.80;40.00;;;23.47;26.70;100331.31;5095580;28;20047;-77
2021/12/11 02:22:57;;;;;;;6.13;4.47;;;19.80;40.00;;;23.46;26.81;100331.44;5096654;28;20112;-77
2021/12/11 02:25:31;;;;;;;4.97;4.15;;;19.90;40.10;;;23.44;26.76;100331.56;5096819;28;20039;-77
2021/12/11 02:28:18;;;;;;;6.60;4.45;;;19.80;40.00;;;23.43;26.63;100337.84;5078622;28;20060;-76
2021/12/11 02:31:08;;;;;;;6.20;4.60;;;19.80;40.00;;;23.45;26.69;100335.91;5096644;28;20150;-76
2021/12/11 02:33:52;;;;;;;4.70;3.97;;;19.80;40.00;;;23.46;26.61;100340.28;5079714;28;20047;-76
2021/12/11 02:36:28;;;;;;;6.15;4.68;;;19.80;40.10;;;23.48;26.41;100346.34;5096933;28;20066;-76
2021/12/11 02:39:06;;;;;;;5.90;4.50;;;19.80;40.00;;;23.42;26.79;100333.50;5079361;28;20047;-77
2021/12/11 02:41:49;;;;;;;5.07;4.18;;;19.80;40.00;;;23.46;26.92;100342.94;5079641;28;20055;-76
2021/12/11 02:44:42;;;;;;;6.13;4.32;;;19.80;40.00;;;23.45;26.89;100345.75;5115038;28;20479;-77
2021/12/11 02:47:27;;;;;;;6.50;5.05;;;19.80;40.00;;;23.43;26.60;100351.19;5093791;28;20082;-77
2021/12/11 02:50:16;;;;;;;6.05;4.40;;;19.80;40.00;;;23.42;26.60;100352.19;5078029;28;20040;-76
2021/12/11 02:52:59;;;;;;;5.03;4.03;;;19.80;40.00;;;23.42;26.76;100354.84;5112379;28;20069;-77
2021/12/11 02:55:46;;;;;;;4.68;3.95;;;19.80;40.00;;;23.48;26.59;100369.50;5078208;28;20407;-76
2021/12/11 02:58:27;;;;;;;5.63;4.63;;;19.80;40.00;;;23.45;26.89;100372.41;5078004;28;20047;-77
2021/12/11 03:01:02;;;;;;;6.22;4.55;;;19.80;40.00;;;23.44;26.79;100379.59;5094375;28;20048;-77
2021/12/11 03:03:38;;;;;;;5.20;4.40;;;19.80;40.00;;;23.39;26.83;100373.78;5096107;28;20424;-76
2021/12/11 03:06:13;;;;;;;4.88;4.13;;;19.80;40.00;;;23.42;26.70;100386.88;5079249;28;20054;-76
2021/12/11 03:08:41;;;;;;;5.93;4.53;;;19.80;40.10;;;23.43;26.66;100382.38;5096680;28;20051;-77
2021/12/11 03:11:13;;;;;;;4.93;4.03;;;19.80;40.00;;;23.39;26.70;100375.56;5096222;28;20047;-76
2021/12/11 03:13:40;;;;;;;5.90;4.60;;;19.80;40.00;;;23.44;26.80;100392.09;5096236;28;20040;-76
2021/12/11 03:16:08;;;;;;;6.35;4.93;;;19.80;40.00;;;23.45;26.67;100399.94;5078952;28;20472;-76
2021/12/11 03:18:35;;;;;;;6.20;4.65;;;19.80;40.00;;;23.45;26.59;100389.28;5078861;28;20112;-76
2021/12/11 03:21:03;;;;;;;5.78;4.30;;;19.80;40.00;;;23.42;26.82;100384.22;5077560;28;20048;-77
2021/12/11 03:23:29;;;;;;;4.88;4.38;;;19.80;40.10;;;23.45;26.71;100389.28;5094583;28;20091;-76
2021/12/11 03:25:54;;;;;;;5.40;4.30;;;19.80;40.00;;;23.45;26.81;100399.09;5095866;28;20051;-76
2021/12/11 03:28:22;;;;;;;6.03;4.80;;;19.80;40.00;;;23.46;26.65;100395.47;5095662;28;20052;-77
2021/12/11 03:30:57;;;;;;;5.25;4.40;;;19.80;40.00;;;23.43;26.88;100398.38;5095773;28;20051;-76
2021/12/11 03:33:29;;;;;;;5.55;4.45;;;19.80;40.00;;;23.46;26.81;100398.16;5062568;28;20490;-76
2021/12/11 03:35:56;;;;;;;5.30;4.32;;;19.80;40.00;;;23.45;26.79;100397.28;5114057;28;20487;-76
2021/12/11 03:38:24;;;;;;;6.45;4.82;;;19.80;40.00;;;23.44;26.75;100403.59;5078727;28;20078;-77
2021/12/11 03:40:50;;;;;;;5.63;4.10;;;19.80;40.00;;;23.42;26.71;100400.22;5094804;28;20407;-77
2021/12/11 03:43:20;;;;;;;5.80;4.68;;;19.80;40.00;;;23.47;26.76;100408.69;5095604;28;20474;-77
2021/12/11 03:45:52;;;;;;;5.35;4.35;;;19.80;40.00;;;23.47;26.85;100406.03;5113846;28;20054;-76
2021/12/11 03:48:25;;;;;;;5.38;4.40;;;19.80;40.00;;;23.44;26.62;100408.09;5113638;28;20059;-76
2021/12/11 03:50:51;;;;;;;6.07;4.50;;;19.80;39.90;;;23.46;26.80;100419.50;5094714;28;20048;-76
2021/12/11 03:53:19;;;;;;;6.57;4.68;;;19.80;40.00;;;23.45;26.79;100417.78;5094086;28;20399;-77
2021/12/11 03:55:55;;;;;;;5.95;4.22;;;19.90;40.00;;;23.47;26.66;100424.72;5093660;28;20055;-76
2021/12/11 03:58:22;;;;;;;5.30;4.50;;;19.80;40.00;;;23.49;26.80;100424.59;5095118;28;20052;-77
2021/12/11 04:01:07;;;;;;;5.03;4.22;;;19.90;40.00;;;23.49;26.84;100427.25;5078487;28;20448;-76
2021/12/11 04:03:37;;;;;;;5.68;4.72;;;19.80;40.00;;;23.47;26.70;100421.16;5095309;28;20058;-77
2021/12/11 04:06:07;;;;;;;5.65;4.32;;;19.80;40.50;;;23.48;26.52;100430.88;5095439;28;20047;-77
2021/12/11 04:08:40;;;;;;;5.72;4.68;;;19.90;40.00;;;23.51;26.72;100427.97;5095762;28;20050;-76
2021/12/11 04:11:18;;;;;;;5.97;4.50;;;19.90;39.90;;;23.50;26.44;100434.28;5111952;28;20050;-77
2021/12/11 04:13:46;;;;;;;4.78;4.18;;;19.90;39.90;;;23.54;26.92;100449.09;5094960;28;20044;-76
2021/12/11 04:16:13;;;;;;;5.38;4.00;;;19.90;39.90;;;23.51;26.50;100454.66;5095115;28;20393;-76
2021/12/11 04:18:39;;;;;;;5.07;4.18;;;19.90;39.90;;;23.52;26.56;100456.34;5094066;28;20046;-76
2021/12/11 04:21:05;;;;;;;4.82;4.18;;;19.90;39.90;;;23.54;26.67;100475.78;5113030;28;20509;-77
2021/12/11 04:23:32;;;;;;;4.78;4.03;;;19.90;39.90;;;23.54;26.90;100470.44;5094930;28;20047;-77
2021/12/11 04:25:59;;;;;;;5.20;4.50;;;19.90;39.80;;;23.53;26.88;100478.56;5095466;28;20395;-77
2021/12/11 04:28:30;;;;;;;4.82;4.00;;;20.00;39.90;;;23.56;26.66;100483.66;5078453;28;20391;-76
2021/12/11 04:31:04;;;;;;;5.03;3.80;;;19.90;39.80;;;23.56;26.78;100489.00;5076131;28;20458;-76
2021/12/11 04:33:41;;;;;;;5.80;4.13;;;19.90;39.80;;;23.56;26.85;100491.66;5095521;28;20391;-77
2021/12/11 04:36:15;;;;;;;4.80;4.13;;;20.00;39.90;;;23.57;26.60;100499.56;5113473;28;20079;-77
2021/12/11 04:38:42;;;;;;;5.68;4.63;;;19.90;39.80;;;23.59;26.68;100504.75;5094774;28;20078;-77
2021/12/11 04:41:15;;;;;;;5.72;4.55;;;20.00;39.80;;;23.57;26.67;100501.34;5078011;28;20086;-77
2021/12/11 04:43:42;;;;;;;6.15;4.55;;;20.00;39.70;;;23.59;26.69;100502.06;5111617;28;20055;-76
2021/12/11 04:46:10;;;;;;;5.07;4.28;;;20.00;39.70;;;23.60;26.66;100507.28;5094794;28;20139;-77
2021/12/11 04:49:57;;;;;;;5.70;4.45;;;20.10;39.80;;;23.63;26.71;100512.41;5094770;28;20113;-76
2021/12/11 04:51:59;;;;;;;5.10;4.13;;;20.00;39.70;;;23.64;26.67;100502.59;5064174;28;20043;-76
2021/12/11 04:54:42;;;;;;;5.18;4.22;;;20.00;39.70;;;23.65;26.65;100513.13;5095489;28;20070;-76
2021/12/11 05:02:58;;;;;;;5.53;4.90;;;20.10;39.70;;;23.65;26.70;100515.78;5094779;28;20043;-77
2021/12/11 05:10:53;;;;;;;4.32;3.83;;;20.10;39.70;;;23.71;26.82;100527.81;5097530;28;20465;-76
2021/12/11 05:13:21;;;;;;;6.28;4.68;;;20.10;39.70;;;23.71;26.68;100530.47;5099356;28;20092;-77
2021/12/11 05:15:50;;;;;;;6.25;4.28;;;20.10;39.70;;;23.68;26.67;100531.56;5097201;28;20048;-77
2021/12/11 05:18:23;;;;;;;5.20;4.40;;;20.10;39.60;;;23.70;26.71;100526.09;5097838;28;20048;-76
2021/12/11 05:20:55;;;;;;;5.65;4.47;;;20.10;39.60;;;23.73;26.56;100531.19;5097772;28;20055;-77
2021/12/11 05:23:21;;;;;;;5.28;4.28;;;20.10;39.60;;;23.75;26.57;100539.94;5114620;28;20043;-77
2021/12/11 05:25:47;;;;;;;6.10;4.88;;;20.10;39.50;;;23.74;26.71;100548.06;5097768;28;20044;-77
2021/12/11 05:28:15;;;;;;;5.75;4.50;;;20.10;39.50;;;23.75;26.36;100555.94;5096101;28;20078;-77
2021/12/11 05:30:47;;;;;;;4.78;4.15;;;20.20;39.60;;;23.76;26.67;100551.50;5116287;28;20048;-76
2021/12/11 05:33:15;;;;;;;5.25;4.45;;;20.10;39.50;;;23.76;26.60;100557.66;5080794;28;20056;-76
2021/12/11 05:35:43;;;;;;;4.80;4.30;;;20.10;39.50;;;23.77;26.52;100559.38;5097838;28;20051;-77
2021/12/11 05:38:14;;;;;;;5.93;4.38;;;20.20;39.60;;;23.75;26.65;100563.97;5097315;28;20036;-77
2021/12/11 05:40:48;;;;;;;5.13;4.30;;;20.20;39.60;;;23.78;26.47;100569.06;5097413;28;20043;-77
2021/12/11 05:43:15;;;;;;;5.93;4.60;;;20.20;39.50;;;23.79;26.50;100578.78;5095861;28;20051;-77
2021/12/11 05:45:42;;;;;;;6.00;4.97;;;20.20;39.50;;;23.78;26.45;100576.22;5097465;28;20051;-77
2021/12/11 05:48:09;;;;;;;5.47;4.25;;;20.20;39.50;;;23.81;26.60;100592.84;5115789;28;20118;-77
2021/12/11 05:50:47;;;;;;;5.45;4.43;;;20.20;39.60;;;23.78;26.41;100586.91;5096553;28;20048;-77
2021/12/11 05:53:16;;;;;;;6.13;4.85;;;20.20;39.50;;;23.80;26.44;100587.63;5097404;28;20054;-76
2021/12/11 05:55:46;;;;;;;5.15;4.43;;;20.20;39.50;;;23.79;26.45;100586.78;5097667;28;20091;-77
2021/12/11 05:58:22;;;;;;;7.15;4.45;;;20.20;39.50;;;23.80;26.40;100590.31;5115200;28;20047;-77
2021/12/11 06:00:51;;;;;;;5.45;4.47;;;20.10;39.50;;;23.80;26.42;100599.16;5098694;28;20395;-77
2021/12/11 06:03:18;;;;;;;5.45;4.30;;;20.20;39.50;;;23.82;26.59;100596.41;5097221;28;20475;-77
2021/12/11 06:05:46;;;;;;;6.47;4.78;;;20.20;39.50;;;23.80;26.60;100604.50;5097681;28;20059;-77
2021/12/11 06:08:13;;;;;;;5.82;4.63;;;20.20;39.50;;;23.82;26.43;100607.06;5079959;28;20058;-77
2021/12/11 06:10:40;;;;;;;5.65;4.45;;;20.20;39.50;;;23.82;26.56;100615.97;5097043;28;20051;-77
2021/12/11 06:13:09;;;;;;;4.28;3.50;;;20.20;39.50;;;23.78;26.49;100609.09;5115251;28;20123;-77
2021/12/11 06:15:36;;;;;;;4.90;4.28;;;20.20;39.50;;;23.82;26.37;100618.63;5080300;28;20047;-77
2021/12/11 06:18:04;;;;;;;6.93;5.15;;;20.20;39.50;;;23.80;26.61;100614.34;5094979;28;20442;-76
2021/12/11 06:20:32;;;;;;;5.47;4.63;;;20.20;39.50;;;23.81;26.40;100614.22;5097020;28;20131;-77
2021/12/11 06:22:58;;;;;;;6.07;4.57;;;20.10;39.50;;;23.82;26.56;100623.97;5078816;28;20062;-77
2021/12/11 06:25:30;;;;;;;6.65;5.00;;;20.10;39.50;;;23.82;26.28;100629.31;5095768;28;20040;-77
2021/12/11 06:27:56;;;;;;;6.10;4.50;;;20.20;39.50;;;23.82;26.49;100626.63;5096039;28;20049;-76
2021/12/11 06:30:22;;;;;;;6.40;4.85;;;20.20;39.50;;;23.83;26.36;100630.16;5095067;28;20069;-77
2021/12/11 06:32:49;;;;;;;5.60;4.18;;;20.10;39.50;;;23.83;26.34;100630.16;5096522;28;20117;-77
2021/12/11 06:35:35;;;;;;;5.40;4.70;;;20.20;39.50;;;23.81;26.60;100632.06;5096004;28;20044;-76
2021/12/11 06:38:04;;;;;;;6.03;4.60;;;20.20;39.50;;;23.83;26.48;100639.00;5078916;28;20439;-77
2021/12/11 06:40:30;;;;;;;4.88;4.28;;;20.20;39.50;;;23.83;26.33;100638.16;5095396;28;20050;-77
2021/12/11 06:42:57;;;;;;;6.00;4.63;;;20.20;39.50;;;23.82;26.43;100636.44;5076529;28;20055;-77
2021/12/11 06:45:25;;;;;;;6.18;4.97;;;20.20;39.60;;;23.82;26.33;100641.78;5079621;28;20047;-77
2021/12/11 06:47:51;;;;;;;5.97;4.53;;;20.10;39.50;;;23.81;26.19;100648.09;5095658;28;20047;-77
2021/12/11 06:50:18;;;;;;;4.82;4.15;;;20.20;39.60;;;23.78;26.27;100648.31;5095140;28;20101;-77
2021/12/11 06:52:46;;;;;;;4.90;4.22;;;20.20;39.60;;;23.79;26.54;100663.34;5094482;28;20078;-77
2021/12/11 06:55:12;;;;;;;5.07;4.20;;;20.10;39.50;;;23.79;26.30;100661.53;5096105;28;20422;-77
2021/12/11 06:57:38;;;;;;;5.40;4.40;;;20.20;39.60;;;23.80;26.39;100670.41;5078701;28;20040;-76
2021/12/11 07:00:05;;;;;;;5.63;4.47;;;20.10;40.00;;;23.80;26.25;100675.75;5094749;28;20080;-76
2021/12/11 07:02:31;;;;;;;5.82;4.57;;;20.20;39.60;;;23.79;26.37;100671.34;5096148;28;20058;-76
2021/12/11 07:04:57;;;;;;;5.82;4.47;;;20.10;39.50;;;23.81;26.35;100675.63;5096459;28;20126;-77
2021/12/11 07:07:27;;;;;;;4.80;4.28;;;20.20;39.50;;;23.79;26.27;100677.56;5096124;28;20054;-77
2021/12/11 07:09:54;;;;;;;5.13;4.43;;;20.20;39.50;;;23.83;26.27;100680.88;5114640;28;20538;-77
2021/12/11 07:12:21;;;;;;;5.60;4.50;;;20.20;39.50;;;23.79;26.39;100674.91;5096186;28;20076;-77
2021/12/11 07:14:48;;;;;;;5.97;4.78;;;20.20;39.60;;;23.82;26.23;100688.03;5096016;28;20052;-77
2021/12/11 07:17:15;;;;;;;6.40;4.35;;;20.20;39.60;;;23.81;26.37;100688.13;5112562;28;20109;-76
2021/12/11 07:19:41;;;;;;;5.90;4.70;;;20.20;39.60;;;23.79;26.36;100696.25;5095273;28;20040;-77
2021/12/11 07:22:07;;;;;;;4.90;4.00;;;20.20;39.50;;;23.83;26.38;100710.25;5114205;28;20071;-76
2021/12/11 07:24:42;;;;;;;5.50;4.40;;;20.20;39.60;;;23.79;26.29;100711.41;5095887;28;20055;-76
2021/12/11 07:27:11;;;;;;;5.38;4.10;;;20.20;39.50;;;23.81;26.28;100720.16;5096196;28;20071;-77
2021/12/11 07:29:40;;;;;;;5.57;4.35;;;20.20;39.50;;;23.83;26.28;100736.94;5095867;28;20059;-77
2021/12/11 07:32:07;;;;;;;5.78;4.50;;;20.20;39.50;;;23.84;26.47;100736.84;5096142;28;20115;-77
2021/12/11 07:34:34;;;;;;;6.25;4.68;;;20.20;39.60;;;23.83;26.27;100735.13;5095092;28;20092;-76
2021/12/11 07:37:02;;;;;;;5.75;4.50;;;20.20;39.60;;;23.83;26.48;100740.47;5095339;28;20135;-77
2021/12/11 07:39:28;;;;;;;4.93;4.00;;;20.20;39.60;;;23.81;26.39;100744.19;5113840;28;20071;-77
2021/12/11 07:41:55;;;;;;;6.22;4.60;;;20.20;39.60;;;23.83;26.50;100742.28;5078674;28;20039;-77
2021/12/11 07:44:23;;;;;;;4.82;4.28;;;20.20;39.50;;;23.84;26.38;100749.34;5095667;28;20502;-77
2021/12/11 07:46:50;;;;;;;6.90;5.30;;;20.20;39.50;;;23.84;26.23;100760.88;5078590;28;20051;-77
2021/12/11 07:49:16;;;;;;;5.97;4.55;;;20.20;39.40;;;23.85;26.59;100764.38;5113660;28;20051;-77
2021/12/11 07:51:42;;;;;;;6.63;4.90;;;20.20;39.40;;;23.86;26.34;100774.94;5095771;28;20078;-77
2021/12/11 07:54:09;;;;;;;5.43;4.57;;;20.20;39.40;;;23.87;26.34;100778.44;5095651;28;20039;-76
2021/12/11 07:56:37;;;;;;;7.13;5.25;;;20.20;39.40;;;23.85;26.31;100775.91;5078561;28;20044;-77
2021/12/11 07:59:06;;;;;;;5.88;4.38;;;20.30;39.40;;;23.89;26.38;100787.22;5095198;28;20043;-76
2021/12/11 08:01:35;;;;;;;6.47;4.90;;;20.30;39.50;;;23.90;26.29;100788.06;5077426;28;20146;-77
2021/12/11 08:04:04;;;;;;;5.13;4.45;;;20.30;39.40;;;23.89;26.46;100787.22;5078342;28;20506;-76
2021/12/11 08:06:32;;;;;;;5.55;4.47;;;20.30;39.40;;;23.91;26.40;100795.97;5094486;28;20453;-77
2021/12/11 08:08:59;;;;;;;5.35;4.22;;;20.30;39.40;;;23.89;26.23;100800.56;5095192;28;20043;-77
2021/12/11 08:11:28;;;;;;;6.85;5.05;;;20.30;39.30;;;23.90;26.45;100798.75;5093659;28;20483;-77
2021/12/11 08:13:56;;;;;;;5.18;4.20;;;20.30;39.40;;;23.92;26.27;100805.66;5095356;28;20430;-77
2021/12/11 08:16:31;;;;;;;5.65;4.47;;;20.30;39.30;;;23.91;26.25;100805.81;5094869;28;20051;-76
2021/12/11 08:18:58;;;;;;;4.78;4.05;;;20.30;39.30;;;23.93;26.33;100806.53;5078849;28;20433;-77
2021/12/11 08:21:24;;;;;;;5.25;4.10;;;20.30;39.20;;;23.92;26.30;100813.66;5095009;28;20122;-77
2021/12/11 08:23:54;;;;;;;5.60;4.70;;;20.30;39.30;;;23.94;26.47;100813.56;5095031;28;20075;-77
2021/12/11 08:26:23;;;;;;;6.78;4.95;;;20.30;39.20;;;23.91;26.33;100814.66;5094650;28;20047;-76
2021/12/11 08:28:50;;;;;;;5.07;4.07;;;20.30;39.30;;;23.92;26.31;100816.34;5094077;28;20066;-77
2021/12/11 08:31:18;;;;;;;4.35;3.88;;;20.30;39.30;;;23.92;26.32;100816.34;5093838;28;20059;-77
2021/12/11 08:33:45;;;;;;;5.28;3.97;;;20.30;39.30;;;23.95;26.33;100832.13;5093810;28;20472;-77
2021/12/11 08:36:12;;;;;;;5.30;4.10;;;20.30;39.30;;;23.95;26.34;100829.47;5094825;28;20492;-77
2021/12/11 08:38:38;;;;;;;6.15;5.03;;;20.30;39.30;;;23.90;26.32;100825.44;5094629;28;20536;-77
2021/12/11 08:41:07;;;;;;;5.80;4.85;;;20.30;39.30;;;23.94;26.37;100838.47;5094898;28;20043;-77
2021/12/11 08:43:34;;;;;;;5.70;4.50;;;20.30;39.30;;;23.93;26.31;100838.56;5077745;28;20055;-76
2021/12/11 08:46:12;;;;;;;4.85;4.10;;;20.30;39.30;;;23.90;26.31;100834.31;5115214;28;20047;-77
2021/12/11 08:48:45;;;;;;;5.88;4.60;;;20.30;39.30;;;23.92;26.30;100843.03;5099238;28;20051;-76
2021/12/11 08:51:26;;;;;;;4.88;4.25;;;20.30;39.30;;;23.95;26.07;100840.16;5081793;28;20047;-77
2021/12/11 08:53:53;;;;;;;6.15;4.30;;;20.30;39.30;;;23.96;26.27;100841.88;5116813;28;20120;-76
2021/12/11 08:56:19;;;;;;;4.97;4.40;;;20.40;39.30;;;23.94;26.29;100841.13;5098064;28;20051;-77
2021/12/11 08:58:47;;;;;;;5.32;4.70;;;20.40;39.30;;;23.92;26.21;100834.19;5096699;28;20052;-77
2021/12/11 09:01:32;;;;;;;6.38;4.80;;;20.40;39.30;;;23.93;26.25;100844.75;5096352;28;20094;-77
2021/12/11 09:04:10;;;;;;;6.00;4.32;;;20.30;39.20;;;23.98;26.06;100855.09;5098396;28;20097;-77
2021/12/11 09:06:46;;;;;;;4.88;4.35;;;20.40;39.30;;;23.94;26.17;100851.81;5097018;28;20048;-76
2021/12/11 09:09:23;;;;;;;5.65;4.30;;;20.30;39.40;;;23.96;26.29;100852.56;5116400;28;20048;-77
2021/12/11 09:11:53;;;;;;;5.97;4.53;;;20.40;39.30;;;23.97;26.15;100864.06;5116284;28;20047;-77
2021/12/11 09:14:36;;;;;;;5.25;4.05;;;20.30;39.20;;;23.94;26.21;100867.84;5116320;28;20466;-76
2021/12/11 09:17:15;;;;;;;6.10;4.43;;;20.30;39.20;;;23.97;26.19;100872.09;5116237;28;20043;-77
2021/12/11 09:19:55;;;;;;;5.78;4.57;;;20.40;39.30;;;23.96;26.10;100873.06;5097797;28;20430;-77
2021/12/11 09:22:29;;;;;;;5.97;4.60;;;20.30;39.20;;;23.95;26.26;100877.53;5097852;28;20051;-77
2021/12/11 09:25:24;;;;;;;5.57;4.57;;;20.30;39.30;;;23.92;26.38;100877.75;5097788;28;20060;-77
2021/12/11 09:28:03;;;;;;;5.07;4.20;;;20.40;39.30;;;23.96;26.11;100881.09;5096040;28;20487;-77
2021/12/11 09:30:41;;;;;;;6.10;4.70;;;20.40;39.30;;;23.94;26.40;100883.00;5097437;28;20043;-77
2021/12/11 09:33:16;;;;;;;5.32;4.35;;;20.40;39.30;;;23.95;26.39;100885.56;5098307;28;20082;-76
2021/12/11 09:35:48;;;;;;;5.10;4.28;;;20.40;39.20;;;23.98;26.36;100889.81;5097814;28;20056;-77
2021/12/11 09:38:23;;;;;;;5.07;4.43;;;20.40;39.20;;;23.98;26.37;100889.81;5115896;28;20044;-76
2021/12/11 09:40:53;;;;;;;5.25;4.18;;;20.40;39.20;;;23.99;26.06;100900.41;5112877;28;20117;-76
2021/12/11 09:43:40;;;;;;;5.57;4.50;;;20.40;39.20;;;23.96;26.33;100897.94;5115722;28;20048;-77
2021/12/11 09:46:11;;;;;;;4.68;3.88;;;20.40;39.20;;;23.99;26.17;100904.88;5094503;28;20048;-76
2021/12/11 09:48:39;;;;;;;6.03;4.53;;;20.40;39.20;;;23.99;26.07;100910.22;5095768;28;20043;-77
2021/12/11 09:51:12;;;;;;;5.88;4.82;;;20.40;39.20;;;23.99;26.14;100910.22;5097648;28;20082;-77
2021/12/11 09:53:48;;;;;;;5.55;4.55;;;20.40;39.10;;;24.01;26.34;100924.31;5095897;28;20560;-77
2021/12/11 09:56:31;;;;;;;5.55;4.45;;;20.40;39.20;;;23.98;26.21;100933.41;5080288;28;20130;-77
2021/12/11 09:59:00;;;;;;;5.85;4.30;;;20.40;39.10;;;24.00;26.14;100930.63;5062334;28;20434;-77
2021/12/11 10:01:36;;;;;;;4.97;4.05;;;20.40;39.10;;;24.02;26.21;100939.38;5097209;28;20093;-77
2021/12/11 10:04:10;;;;;;;5.68;4.57;;;20.40;39.10;;;24.02;26.17;100940.25;5097544;28;20047;-77
2021/12/11 10:06:49;;;;;;;5.63;4.30;;;20.40;39.10;;;24.00;26.18;100941.31;5097228;28;20073;-77
2021/12/11 10:09:30;;;;;;;4.40;4.00;;;20.40;39.10;;;24.00;26.27;100949.31;5098173;28;20500;-77
2021/12/11 10:12:18;;;;;;;4.60;4.10;;;20.40;39.10;;;24.03;26.22;100951.75;5095830;28;20503;-77
2021/12/11 10:14:54;;;;;;;5.53;4.35;;;20.40;39.10;;;24.04;26.12;100948.16;5080145;28;20051;-77
2021/12/11 10:17:30;;;;;;;5.78;4.55;;;20.40;39.10;;;24.04;26.29;100948.16;5096735;28;20130;-77
2021/12/11 10:20:00;;;;;;;5.57;4.38;;;20.40;39.10;;;23.97;26.03;100931.72;5095425;28;20110;-77
2021/12/11 10:22:32;;;;;;;5.30;4.20;;;20.40;39.10;;;24.02;26.06;100942.03;5096827;28;20059;-77
2021/12/11 10:24:59;;;;;;;6.10;4.60;;;20.40;39.10;;;24.02;26.16;100950.91;5063562;28;20043;-77
2021/12/11 10:27:30;;;;;;;5.25;4.15;;;20.40;39.10;;;24.03;26.15;100949.09;5115017;28;20406;-77
2021/12/11 10:29:59;;;;;;;4.45;3.92;;;20.40;39.10;;;24.04;26.07;100948.16;5114948;28;20075;-77
2021/12/11 10:32:30;;;;;;;5.93;4.75;;;20.40;39.10;;;24.07;26.37;100952.38;5095380;28;20044;-77
2021/12/11 10:35:03;;;;;;;4.72;3.85;;;20.40;39.10;;;24.06;26.15;100948.88;5097052;28;20142;-77
2021/12/11 10:37:36;;;;;;;5.05;3.92;;;20.50;39.10;;;24.07;25.98;100955.06;5080023;28;20055;-76
2021/12/11 10:40:27;;;;;;;5.30;4.43;;;20.50;39.10;;;24.05;26.35;100950.66;5096868;28;20134;-77
2021/12/11 10:43:28;;;;;;;5.20;4.10;;;20.50;39.00;;;24.04;26.25;100951.66;5096326;28;20536;-77
2021/12/11 10:45:56;;;;;;;5.13;4.40;;;20.40;39.00;;;24.09;26.20;100954.00;5096228;28;20057;-77
2021/12/11 10:48:27;;;;;;;4.55;3.85;;;20.50;39.00;;;24.09;26.23;100959.34;5078580;28;20085;-77
2021/12/11 10:51:23;;;;;;;5.40;4.45;;;20.50;39.00;;;24.08;26.02;100960.28;5079253;28;20050;-77
2021/12/11 10:53:52;;;;;;;5.75;4.30;;;20.40;39.00;;;24.08;26.25;100962.97;5096310;28;20116;-77